Airfield :
LOGIN :

Register | Disclaimer

   EN    FR    IT 

 










Legend :    VFR   Marginal VFR   IFR   Intensive IFR   Very Intensive IFR
Visi :
Ceiling :
>= 8 km
>= 3000ft
5 to 8 km
1000 to 3000 ft
1500m to 5 km
500 to 1000 ft
800 to 1500m
200 to 500 ft
< 800m
< 200 ft
Symbols :   Thunderstorms  Fog  Heavy snow  Heavy precipitations  Wind > 20 kt
SIGMETs :     Misc.  Thunderstorms  Icing  Turbulence  Mountain Waves  Volcanic Ashes







- Airport Elevation : 287 ft
- Download approach charts


LFRL - Lanveoc Poulmic

CURRENT METAR :
  • 160700Z AUTO 13004KT 090V170 9000 OVC010 13/11 Q1020 TEMPO 3000 BR OVC003

EXPIRED METARs :
  • 160630Z AUTO 12006KT 090V160 8000 OVC010 13/11 Q1020 TEMPO 3000 BR OVC003
  • 160600Z AUTO 11004KT 070V150 9000 OVC010 13/11 Q1020 TEMPO 3000 BR OVC003
  • 160530Z AUTO 11003KT 8000 OVC009 13/11 Q1019 TEMPO 3000 BR OVC003
  • 160500Z AUTO 13003KT 110V170 9000 OVC009 13/11 Q1019
  • 160430Z AUTO 13006KT 9999 OVC009 13/11 Q1019
  • 160400Z AUTO 14005KT 100V170 9999 OVC009 13/11 Q1019

TAF TAF LFRL
Valid from the 16 at 06:00 until the 17 at 06:00 UTC


160500Z 1606/1706 13008KT 8000 OVC008
PROB30
TEMPO 1606/1610 3000 BR OVC003
BECMG 1610/1612 SCT015
No reported NOTAMs for that airfield.



MET'MAP, your aeronautical weather chart ! - Copyright ORBIFLY December 2007 - Disclaimer

ORBIFLY MET'MAP TEAM :

Programming & Development : Alexandra Zaïnal
Concept & Development : Baudouin d'Aumeries
Co-Development & Prog : Marc-Olivier Méhu
Technical & hardware support : Manuel Goepfert

Contact : metmap@orbifly.com




SOURCES & CREDITS :

   NOAA